sensor_id;sensor_type;location;lat;lon;timestamp;pressure;altitude;pressure_sealevel;temperature;humidity
77639;BME280;66802;52.574;14.398;2023-05-15T03:02:32;101104.84;;;10.49;68.19
77639;BME280;66802;52.574;14.398;2023-05-15T03:04:57;101103.13;;;10.48;68.18
77639;BME280;66802;52.574;14.398;2023-05-15T03:07:23;101109.38;;;10.48;68.30
77639;BME280;66802;52.574;14.398;2023-05-15T03:09:48;101096.56;;;10.50;68.66
77639;BME280;66802;52.574;14.398;2023-05-15T03:12:14;101097.28;;;10.52;69.29
77639;BME280;66802;52.574;14.398;2023-05-15T03:14:39;101105.94;;;10.56;69.47
77639;BME280;66802;52.574;14.398;2023-05-15T03:17:05;101096.84;;;10.57;69.48
77639;BME280;66802;52.574;14.398;2023-05-15T03:19:31;101104.34;;;10.63;69.42
77639;BME280;66802;52.574;14.398;2023-05-15T03:21:56;101097.13;;;10.64;69.76
77639;BME280;66802;52.574;14.398;2023-05-15T03:24:22;101096.97;;;10.65;70.12
77639;BME280;66802;52.574;14.398;2023-05-15T03:26:47;101094.00;;;10.68;70.40
77639;BME280;66802;52.574;14.398;2023-05-15T03:29:13;101097.97;;;10.64;69.51
77639;BME280;66802;52.574;14.398;2023-05-15T03:31:38;101100.66;;;10.64;70.21
77639;BME280;66802;52.574;14.398;2023-05-15T03:34:04;101097.97;;;10.64;69.78
77639;BME280;66802;52.574;14.398;2023-05-15T03:36:30;101094.41;;;10.64;69.84
77639;BME280;66802;52.574;14.398;2023-05-15T03:38:55;101092.44;;;10.66;69.96
77639;BME280;66802;52.574;14.398;2023-05-15T03:41:21;101105.22;;;10.64;69.70
77639;BME280;66802;52.574;14.398;2023-05-15T03:43:47;101108.75;;;10.64;70.18
77639;BME280;66802;52.574;14.398;2023-05-15T03:46:12;101108.75;;;10.64;70.52
77639;BME280;66802;52.574;14.398;2023-05-15T03:48:38;101102.38;;;10.65;70.95
77639;BME280;66802;52.574;14.398;2023-05-15T03:51:03;101102.50;;;10.64;70.95
77639;BME280;66802;52.574;14.398;2023-05-15T03:53:29;101103.66;;;10.61;70.09
77639;BME280;66802;52.574;14.398;2023-05-15T03:55:55;101105.06;;;10.65;70.22
77639;BME280;66802;52.574;14.398;2023-05-15T03:58:21;101102.22;;;10.67;70.38
77639;BME280;66802;52.574;14.398;2023-05-15T04:00:46;101107.88;;;10.73;71.12
77639;BME280;66802;52.574;14.398;2023-05-15T04:03:12;101092.72;;;10.63;71.67
77639;BME280;66802;52.574;14.398;2023-05-15T04:05:37;101103.66;;;10.61;71.99
77639;BME280;66802;52.574;14.398;2023-05-15T04:08:03;101101.81;;;10.61;71.74
77639;BME280;66802;52.574;14.398;2023-05-15T04:10:28;101100.81;;;10.63;72.65
77639;BME280;66802;52.574;14.398;2023-05-15T04:12:56;101104.06;;;10.66;72.84
77639;BME280;66802;52.574;14.398;2023-05-15T04:15:25;101092.25;;;10.77;73.30
77639;BME280;66802;52.574;14.398;2023-05-15T04:17:53;101083.81;;;10.89;73.33
77639;BME280;66802;52.574;14.398;2023-05-15T04:20:23;101069.72;;;10.95;73.02
77639;BME280;66802;52.574;14.398;2023-05-15T04:22:50;101069.31;;;10.90;73.07
77639;BME280;66802;52.574;14.398;2023-05-15T04:25:16;101076.28;;;10.83;73.94
77639;BME280;66802;52.574;14.398;2023-05-15T04:27:43;101080.75;;;10.75;73.34
77639;BME280;66802;52.574;14.398;2023-05-15T04:30:09;101081.41;;;10.86;73.56
77639;BME280;66802;52.574;14.398;2023-05-15T04:32:36;101078.00;;;10.84;74.00
77639;BME280;66802;52.574;14.398;2023-05-15T04:35:03;101076.28;;;10.83;72.90
77639;BME280;66802;52.574;14.398;2023-05-15T04:37:36;101069.38;;;10.81;73.27
77639;BME280;66802;52.574;14.398;2023-05-15T04:40:03;101065.63;;;10.91;73.42
77639;BME280;66802;52.574;14.398;2023-05-15T04:42:28;101067.63;;;10.89;73.41
77639;BME280;66802;52.574;14.398;2023-05-15T04:44:54;101083.41;;;10.84;73.62
77639;BME280;66802;52.574;14.398;2023-05-15T04:47:20;101080.69;;;10.84;73.05
77639;BME280;66802;52.574;14.398;2023-05-15T04:49:45;101097.63;;;10.86;74.05
77639;BME280;66802;52.574;14.398;2023-05-15T04:52:12;101086.91;;;10.94;73.82
77639;BME280;66802;52.574;14.398;2023-05-15T04:54:38;101086.84;;;10.77;74.56
77639;BME280;66802;52.574;14.398;2023-05-15T04:57:04;101087.75;;;10.58;75.78
77639;BME280;66802;52.574;14.398;2023-05-15T04:59:30;101076.38;;;10.64;75.17
77639;BME280;66802;52.574;14.398;2023-05-15T05:01:56;101077.34;;;10.63;75.01
77639;BME280;66802;52.574;14.398;2023-05-15T05:04:21;101079.34;;;10.71;74.70
77639;BME280;66802;52.574;14.398;2023-05-15T05:06:48;101076.00;;;10.86;74.72
77639;BME280;66802;52.574;14.398;2023-05-15T05:09:13;101066.31;;;10.93;75.04
77639;BME280;66802;52.574;14.398;2023-05-15T05:11:39;101070.41;;;10.97;75.50
77639;BME280;66802;52.574;14.398;2023-05-15T05:14:11;101065.31;;;10.94;74.37
77639;BME280;66802;52.574;14.398;2023-05-15T05:16:37;101060.56;;;11.06;74.48
77639;BME280;66802;52.574;14.398;2023-05-15T05:19:04;101061.69;;;11.13;74.14
77639;BME280;66802;52.574;14.398;2023-05-15T05:21:31;101048.13;;;11.23;73.84
77639;BME280;66802;52.574;14.398;2023-05-15T05:23:57;101051.13;;;11.20;73.64
77639;BME280;66802;52.574;14.398;2023-05-15T05:26:24;101047.28;;;11.22;74.10
77639;BME280;66802;52.574;14.398;2023-05-15T05:28:50;101043.38;;;11.25;73.70
77639;BME280;66802;52.574;14.398;2023-05-15T05:31:16;101050.91;;;11.31;73.20
77639;BME280;66802;52.574;14.398;2023-05-15T05:33:41;101050.19;;;11.29;73.60
77639;BME280;66802;52.574;14.398;2023-05-15T05:36:07;101040.53;;;11.26;73.43
77639;BME280;66802;52.574;14.398;2023-05-15T05:38:34;101039.53;;;11.27;73.43
77639;BME280;66802;52.574;14.398;2023-05-15T05:41:01;101039.53;;;11.27;73.71
77639;BME280;66802;52.574;14.398;2023-05-15T05:43:27;101037.41;;;11.31;73.54
77639;BME280;66802;52.574;14.398;2023-05-15T05:45:53;101029.84;;;11.34;72.91
77639;BME280;66802;52.574;14.398;2023-05-15T05:48:19;101033.06;;;11.38;72.90
77639;BME280;66802;52.574;14.398;2023-05-15T05:50:45;101028.50;;;11.39;73.50
77639;BME280;66802;52.574;14.398;2023-05-15T05:53:10;101029.22;;;11.41;74.15
77639;BME280;66802;52.574;14.398;2023-05-15T05:55:36;101022.97;;;11.58;75.17
77639;BME280;66802;52.574;14.398;2023-05-15T05:58:02;101024.53;;;11.60;74.61
77639;BME280;66802;52.574;14.398;2023-05-15T06:00:28;101014.47;;;11.70;74.32
77639;BME280;66802;52.574;14.398;2023-05-15T06:02:57;101008.75;;;11.74;75.33
77639;BME280;66802;52.574;14.398;2023-05-15T06:05:26;101004.59;;;11.79;75.17
77639;BME280;66802;52.574;14.398;2023-05-15T06:07:53;101005.94;;;11.75;74.82
77639;BME280;66802;52.574;14.398;2023-05-15T06:10:19;101002.16;;;11.86;75.47
77639;BME280;66802;52.574;14.398;2023-05-15T06:12:47;100987.97;;;11.92;75.66
77639;BME280;66802;52.574;14.398;2023-05-15T06:15:14;100984.97;;;11.95;75.88
77639;BME280;66802;52.574;14.398;2023-05-15T06:17:40;100984.66;;;11.80;76.89
77639;BME280;66802;52.574;14.398;2023-05-15T06:20:06;100985.75;;;11.87;76.75
77639;BME280;66802;52.574;14.398;2023-05-15T06:22:35;100981.09;;;11.97;76.16
77639;BME280;66802;52.574;14.398;2023-05-15T06:25:01;100977.53;;;11.97;76.75
77639;BME280;66802;52.574;14.398;2023-05-15T06:27:28;100974.34;;;12.01;76.85
77639;BME280;66802;52.574;14.398;2023-05-15T06:29:53;100970.78;;;12.01;76.73
77639;BME280;66802;52.574;14.398;2023-05-15T06:32:19;100960.75;;;12.11;76.18
77639;BME280;66802;52.574;14.398;2023-05-15T06:34:45;100960.06;;;12.09;76.44
77639;BME280;66802;52.574;14.398;2023-05-15T06:37:11;100960.34;;;12.06;77.02
77639;BME280;66802;52.574;14.398;2023-05-15T06:39:36;100959.41;;;12.15;77.49
77639;BME280;66802;52.574;14.398;2023-05-15T06:42:02;100955.34;;;12.11;77.11
77639;BME280;66802;52.574;14.398;2023-05-15T06:44:29;100955.03;;;12.22;77.16
77639;BME280;66802;52.574;14.398;2023-05-15T06:46:55;100953.72;;;12.26;77.49
77639;BME280;66802;52.574;14.398;2023-05-15T06:49:21;100946.72;;;12.41;77.07
77639;BME280;66802;52.574;14.398;2023-05-15T06:51:46;100941.19;;;12.51;76.58
77639;BME280;66802;52.574;14.398;2023-05-15T06:54:12;100939.31;;;12.52;76.40
77639;BME280;66802;52.574;14.398;2023-05-15T06:56:38;100931.69;;;12.55;76.22
77639;BME280;66802;52.574;14.398;2023-05-15T06:59:03;100934.81;;;12.68;76.19
77639;BME280;66802;52.574;14.398;2023-05-15T07:01:30;100926.69;;;12.68;75.78
77639;BME280;66802;52.574;14.398;2023-05-15T07:03:56;100924.53;;;12.88;74.84
77639;BME280;66802;52.574;14.398;2023-05-15T07:06:21;100925.25;;;12.98;74.58
77639;BME280;66802;52.574;14.398;2023-05-15T07:08:47;100925.25;;;12.98;74.27
77639;BME280;66802;52.574;14.398;2023-05-15T07:11:14;100916.31;;;13.06;74.29
77639;BME280;66802;52.574;14.398;2023-05-15T07:13:39;100914.31;;;13.16;74.64
77639;BME280;66802;52.574;14.398;2023-05-15T07:16:05;100914.34;;;13.24;73.50
77639;BME280;66802;52.574;14.398;2023-05-15T07:18:31;100903.50;;;13.32;72.89
77639;BME280;66802;52.574;14.398;2023-05-15T07:20:56;100895.69;;;13.45;71.53
77639;BME280;66802;52.574;14.398;2023-05-15T07:23:22;100892.34;;;13.51;71.19
77639;BME280;66802;52.574;14.398;2023-05-15T07:25:48;100882.31;;;13.52;71.09
77639;BME280;66802;52.574;14.398;2023-05-15T07:28:13;100884.34;;;13.58;71.26
77639;BME280;66802;52.574;14.398;2023-05-15T07:30:40;100884.34;;;13.66;70.92
77639;BME280;66802;52.574;14.398;2023-05-15T07:33:05;100883.50;;;13.82;70.39
77639;BME280;66802;52.574;14.398;2023-05-15T07:35:31;100879.75;;;13.83;70.70
77639;BME280;66802;52.574;14.398;2023-05-15T07:37:57;100881.25;;;13.94;71.45
77639;BME280;66802;52.574;14.398;2023-05-15T07:40:22;100879.03;;;14.05;70.52
77639;BME280;66802;52.574;14.398;2023-05-15T07:42:48;100885.63;;;14.11;69.75
77639;BME280;66802;52.574;14.398;2023-05-15T07:45:13;100876.25;;;14.21;69.37
77639;BME280;66802;52.574;14.398;2023-05-15T07:47:44;100875.03;;;14.40;69.01
77639;BME280;66802;52.574;14.398;2023-05-15T07:50:14;100881.63;;;14.46;68.78
77639;BME280;66802;52.574;14.398;2023-05-15T07:52:40;100872.94;;;14.50;69.51
77639;BME280;66802;52.574;14.398;2023-05-15T07:55:07;100879.16;;;14.67;69.45
77639;BME280;66802;52.574;14.398;2023-05-15T07:57:32;100879.78;;;14.77;68.64
77639;BME280;66802;52.574;14.398;2023-05-15T07:59:58;100883.56;;;14.99;67.76
77639;BME280;66802;52.574;14.398;2023-05-15T08:02:24;100862.53;;;15.16;67.36
77639;BME280;66802;52.574;14.398;2023-05-15T08:04:49;100866.91;;;15.25;67.14
77639;BME280;66802;52.574;14.398;2023-05-15T08:07:15;100855.72;;;15.43;67.34
77639;BME280;66802;52.574;14.398;2023-05-15T08:09:40;100865.50;;;15.52;66.36
77639;BME280;66802;52.574;14.398;2023-05-15T08:12:17;100855.97;;;15.70;65.58
77639;BME280;66802;52.574;14.398;2023-05-15T08:14:52;100854.03;;;15.79;64.76
77639;BME280;66802;52.574;14.398;2023-05-15T08:17:19;100847.03;;;15.99;64.65
77639;BME280;66802;52.574;14.398;2023-05-15T08:19:46;100843.63;;;16.12;63.93
77639;BME280;66802;52.574;14.398;2023-05-15T08:22:12;100838.28;;;16.19;63.72
77639;BME280;66802;52.574;14.398;2023-05-15T08:24:38;100834.91;;;16.17;64.01
77639;BME280;66802;52.574;14.398;2023-05-15T08:27:05;100834.31;;;16.36;64.10
77639;BME280;66802;52.574;14.398;2023-05-15T08:29:31;100838.91;;;16.50;63.74
77639;BME280;66802;52.574;14.398;2023-05-15T08:31:57;100839.47;;;16.60;62.93
77639;BME280;66802;52.574;14.398;2023-05-15T08:34:23;100842.19;;;16.60;62.71
77639;BME280;66802;52.574;14.398;2023-05-15T08:36:49;100848.97;;;16.64;62.40
77639;BME280;66802;52.574;14.398;2023-05-15T08:39:15;100843.03;;;16.75;61.62
77639;BME280;66802;52.574;14.398;2023-05-15T08:41:47;100845.34;;;16.78;60.40
77639;BME280;66802;52.574;14.398;2023-05-15T08:44:16;100845.25;;;16.87;60.74
77639;BME280;66802;52.574;14.398;2023-05-15T08:46:42;100839.94;;;17.00;61.75
77639;BME280;66802;52.574;14.398;2023-05-15T08:52:06;100846.94;;;17.09;60.31
77639;BME280;66802;52.574;14.398;2023-05-15T08:54:32;100840.69;;;17.08;60.61
77639;BME280;66802;52.574;14.398;2023-05-15T08:56:59;100844.88;;;17.11;61.04
77639;BME280;66802;52.574;14.398;2023-05-15T08:59:25;100839.16;;;17.06;60.19
77639;BME280;66802;52.574;14.398;2023-05-15T09:01:51;100837.28;;;17.06;60.55
77639;BME280;66802;52.574;14.398;2023-05-15T09:04:17;100833.59;;;17.14;61.23
77639;BME280;66802;52.574;14.398;2023-05-15T09:06:46;100829.44;;;17.18;60.97
77639;BME280;66802;52.574;14.398;2023-05-15T09:09:12;100829.03;;;17.21;60.51
77639;BME280;66802;52.574;14.398;2023-05-15T09:11:45;100835.22;;;17.30;61.27
77639;BME280;66802;52.574;14.398;2023-05-15T09:14:11;100827.72;;;17.38;61.80
77639;BME280;66802;52.574;14.398;2023-05-15T09:16:37;100830.50;;;17.45;61.68
77639;BME280;66802;52.574;14.398;2023-05-15T09:19:05;100823.97;;;17.39;62.31
77639;BME280;66802;52.574;14.398;2023-05-15T09:21:31;100823.81;;;17.47;62.06
77639;BME280;66802;52.574;14.398;2023-05-15T09:24:16;100822.31;;;17.45;61.74
77639;BME280;66802;52.574;14.398;2023-05-15T09:26:43;100814.63;;;17.55;61.76
77639;BME280;66802;52.574;14.398;2023-05-15T09:29:09;100808.78;;;17.58;61.36
77639;BME280;66802;52.574;14.398;2023-05-15T09:31:35;100807.44;;;17.47;61.37
77639;BME280;66802;52.574;14.398;2023-05-15T09:34:01;100807.31;;;17.34;61.97
77639;BME280;66802;52.574;14.398;2023-05-15T09:36:29;100806.28;;;17.35;61.78
77639;BME280;66802;52.574;14.398;2023-05-15T09:38:59;100798.56;;;17.39;61.70
77639;BME280;66802;52.574;14.398;2023-05-15T09:41:26;100805.38;;;17.28;61.87
77639;BME280;66802;52.574;14.398;2023-05-15T09:43:56;100799.75;;;17.30;61.57
77639;BME280;66802;52.574;14.398;2023-05-15T09:46:22;100800.88;;;17.21;60.70
77639;BME280;66802;52.574;14.398;2023-05-15T09:48:48;100802.19;;;17.25;61.42
77639;BME280;66802;52.574;14.398;2023-05-15T09:51:19;100797.41;;;17.27;61.75
77639;BME280;66802;52.574;14.398;2023-05-15T09:53:54;100788.72;;;17.44;61.03
77639;BME280;66802;52.574;14.398;2023-05-15T09:56:20;100796.06;;;17.44;61.57
77639;BME280;66802;52.574;14.398;2023-05-15T09:58:54;100792.69;;;17.42;61.60
77639;BME280;66802;52.574;14.398;2023-05-15T10:01:21;100789.63;;;17.51;62.23
77639;BME280;66802;52.574;14.398;2023-05-15T10:06:23;100789.47;;;17.60;61.61
77639;BME280;66802;52.574;14.398;2023-05-15T10:08:52;100795.38;;;17.63;61.09
77639;BME280;66802;52.574;14.398;2023-05-15T10:11:19;100789.34;;;17.68;59.98
77639;BME280;66802;52.574;14.398;2023-05-15T10:13:46;100781.16;;;17.68;60.78
77639;BME280;66802;52.574;14.398;2023-05-15T10:16:13;100781.53;;;17.65;59.89
77639;BME280;66802;52.574;14.398;2023-05-15T10:18:40;100781.94;;;17.62;60.59
77639;BME280;66802;52.574;14.398;2023-05-15T10:21:09;100778.63;;;17.66;60.38
77639;BME280;66802;52.574;14.398;2023-05-15T10:23:36;100783.56;;;17.56;60.70
77639;BME280;66802;52.574;14.398;2023-05-15T10:26:11;100783.53;;;17.49;61.71
77639;BME280;66802;52.574;14.398;2023-05-15T10:28:39;100771.13;;;17.53;62.25
77639;BME280;66802;52.574;14.398;2023-05-15T10:31:06;100778.75;;;17.58;61.76
77639;BME280;66802;52.574;14.398;2023-05-15T10:33:34;100764.19;;;17.72;61.79
77639;BME280;66802;52.574;14.398;2023-05-15T10:36:02;100765.72;;;17.88;60.62
77639;BME280;66802;52.574;14.398;2023-05-15T10:38:28;100762.84;;;17.96;59.94
77639;BME280;66802;52.574;14.398;2023-05-15T10:40:58;100756.59;;;18.09;60.23
77639;BME280;66802;52.574;14.398;2023-05-15T10:43:25;100747.03;;;18.26;59.86
77639;BME280;66802;52.574;14.398;2023-05-15T10:45:51;100742.41;;;18.40;59.53
77639;BME280;66802;52.574;14.398;2023-05-15T10:48:18;100733.19;;;18.41;58.13
77639;BME280;66802;52.574;14.398;2023-05-15T10:50:47;100733.84;;;18.49;58.81
77639;BME280;66802;52.574;14.398;2023-05-15T10:53:13;100735.78;;;18.62;59.29
77639;BME280;66802;52.574;14.398;2023-05-15T10:55:39;100737.06;;;18.73;59.48
77639;BME280;66802;52.574;14.398;2023-05-15T10:58:08;100741.31;;;18.88;58.54
77639;BME280;66802;52.574;14.398;2023-05-15T11:00:41;100756.03;;;18.87;57.65
77639;BME280;66802;52.574;14.398;2023-05-15T11:03:07;100756.03;;;18.81;56.69
77639;BME280;66802;52.574;14.398;2023-05-15T11:06:09;100750.75;;;18.66;56.64
77639;BME280;66802;52.574;14.398;2023-05-15T11:08:39;100761.69;;;18.59;56.70
77639;BME280;66802;52.574;14.398;2023-05-15T11:11:05;100786.59;;;18.43;55.69
77639;BME280;66802;52.574;14.398;2023-05-15T11:14:10;100803.28;;;18.14;53.49
77639;BME280;66802;52.574;14.398;2023-05-15T11:22:20;100810.47;;;16.38;61.72
77639;BME280;66802;52.574;14.398;2023-05-15T11:25:02;100797.44;;;16.19;62.68
77639;BME280;66802;52.574;14.398;2023-05-15T11:27:32;100801.03;;;15.90;64.71
77639;BME280;66802;52.574;14.398;2023-05-15T11:30:19;100802.41;;;15.71;66.90
77639;BME280;66802;52.574;14.398;2023-05-15T11:38:17;100786.38;;;15.76;68.63
77639;BME280;66802;52.574;14.398;2023-05-15T11:40:50;100769.63;;;15.79;68.57
77639;BME280;66802;52.574;14.398;2023-05-15T11:43:39;100755.66;;;15.82;69.28
77639;BME280;66802;52.574;14.398;2023-05-15T11:46:07;100763.28;;;15.87;70.42
77639;BME280;66802;52.574;14.398;2023-05-15T11:48:41;100762.50;;;15.93;69.84
77639;BME280;66802;52.574;14.398;2023-05-15T11:51:19;100766.19;;;16.00;69.70
77639;BME280;66802;52.574;14.398;2023-05-15T11:53:48;100762.81;;;15.98;69.24
77639;BME280;66802;52.574;14.398;2023-05-15T11:58:47;100759.97;;;16.06;67.98
77639;BME280;66802;52.574;14.398;2023-05-15T12:01:13;100752.47;;;16.08;68.59
77639;BME280;66802;52.574;14.398;2023-05-15T12:03:38;100750.56;;;16.09;69.03
77639;BME280;66802;52.574;14.398;2023-05-15T12:06:04;100749.16;;;16.13;68.84
77639;BME280;66802;52.574;14.398;2023-05-15T12:08:32;100740.88;;;16.21;68.11
77639;BME280;66802;52.574;14.398;2023-05-15T12:10:59;100737.72;;;16.38;67.43
77639;BME280;66802;52.574;14.398;2023-05-15T12:13:25;100743.53;;;16.50;69.56
77639;BME280;66802;52.574;14.398;2023-05-15T12:15:50;100730.28;;;16.62;69.59
77639;BME280;66802;52.574;14.398;2023-05-15T12:18:16;100732.84;;;16.70;68.79
77639;BME280;66802;52.574;14.398;2023-05-15T12:20:41;100728.31;;;16.77;68.62
77639;BME280;66802;52.574;14.398;2023-05-15T12:23:15;100727.22;;;16.93;68.58
77639;BME280;66802;52.574;14.398;2023-05-15T12:25:43;100736.28;;;17.00;68.10
77639;BME280;66802;52.574;14.398;2023-05-15T12:28:10;100729.03;;;17.07;68.00
77639;BME280;66802;52.574;14.398;2023-05-15T12:30:37;100733.03;;;17.11;67.80
77639;BME280;66802;52.574;14.398;2023-05-15T12:33:05;100730.22;;;17.26;67.50
77639;BME280;66802;52.574;14.398;2023-05-15T12:35:32;100728.56;;;17.31;66.39
77639;BME280;66802;52.574;14.398;2023-05-15T12:38:03;100729.63;;;17.30;64.88
77639;BME280;66802;52.574;14.398;2023-05-15T12:40:32;100728.81;;;17.36;64.54
77639;BME280;66802;52.574;14.398;2023-05-15T12:43:07;100726.13;;;17.43;65.55
77639;BME280;66802;52.574;14.398;2023-05-15T12:45:33;100709.16;;;17.47;66.48
77639;BME280;66802;52.574;14.398;2023-05-15T12:48:03;100718.41;;;17.46;67.26
77639;BME280;66802;52.574;14.398;2023-05-15T12:50:31;100714.84;;;17.52;65.83
77639;BME280;66802;52.574;14.398;2023-05-15T12:53:00;100714.97;;;17.66;65.45
77639;BME280;66802;52.574;14.398;2023-05-15T12:55:32;100715.44;;;17.76;65.73
77639;BME280;66802;52.574;14.398;2023-05-15T12:58:01;100714.03;;;17.80;64.86
77639;BME280;66802;52.574;14.398;2023-05-15T13:00:29;100714.22;;;17.85;65.27
77639;BME280;66802;52.574;14.398;2023-05-15T13:02:56;100706.75;;;17.94;65.28
77639;BME280;66802;52.574;14.398;2023-05-15T13:05:24;100707.72;;;17.86;64.62
77639;BME280;66802;52.574;14.398;2023-05-15T13:07:50;100706.94;;;17.92;64.88
77639;BME280;66802;52.574;14.398;2023-05-15T13:10:22;100701.69;;;17.97;65.14
77639;BME280;66802;52.574;14.398;2023-05-15T13:12:53;100703.63;;;18.10;64.83
77639;BME280;66802;52.574;14.398;2023-05-15T13:15:33;100707.63;;;18.07;66.34
77639;BME280;66802;52.574;14.398;2023-05-15T13:18:11;100693.59;;;18.17;67.31
77639;BME280;66802;52.574;14.398;2023-05-15T13:20:39;100696.97;;;18.26;66.03
77639;BME280;66802;52.574;14.398;2023-05-15T13:23:06;100692.81;;;18.43;65.88
77639;BME280;66802;52.574;14.398;2023-05-15T13:25:33;100685.91;;;18.53;66.08
77639;BME280;66802;52.574;14.398;2023-05-15T13:28:04;100687.16;;;18.51;66.03
77639;BME280;66802;52.574;14.398;2023-05-15T13:30:34;100685.63;;;18.29;65.21
77639;BME280;66802;52.574;14.398;2023-05-15T13:33:00;100688.72;;;18.12;64.67
77639;BME280;66802;52.574;14.398;2023-05-15T13:35:27;100702.91;;;17.88;64.43
77639;BME280;66802;52.574;14.398;2023-05-15T13:37:53;100697.88;;;17.50;64.04
77639;BME280;66802;52.574;14.398;2023-05-15T13:40:18;100693.16;;;17.38;65.15
77639;BME280;66802;52.574;14.398;2023-05-15T13:42:45;100704.97;;;17.17;65.76
77639;BME280;66802;52.574;14.398;2023-05-15T13:45:14;100704.50;;;16.86;65.31
77639;BME280;66802;52.574;14.398;2023-05-15T13:47:41;100690.69;;;16.87;66.26
77639;BME280;66802;52.574;14.398;2023-05-15T13:50:08;100704.34;;;16.94;66.20
77639;BME280;66802;52.574;14.398;2023-05-15T13:52:34;100708.59;;;16.96;66.64
77639;BME280;66802;52.574;14.398;2023-05-15T13:55:00;100699.59;;;17.02;66.13
77639;BME280;66802;52.574;14.398;2023-05-15T13:57:26;100698.75;;;17.02;66.50
77639;BME280;66802;52.574;14.398;2023-05-15T13:59:51;100707.44;;;17.12;65.83
77639;BME280;66802;52.574;14.398;2023-05-15T14:02:17;100702.06;;;17.19;64.84
77639;BME280;66802;52.574;14.398;2023-05-15T14:04:43;100706.47;;;17.20;63.19
77639;BME280;66802;52.574;14.398;2023-05-15T14:07:08;100714.03;;;17.24;62.32
77639;BME280;66802;52.574;14.398;2023-05-15T14:09:34;100721.06;;;17.12;62.59
77639;BME280;66802;52.574;14.398;2023-05-15T14:11:59;100731.47;;;17.02;63.84
77639;BME280;66802;52.574;14.398;2023-05-15T14:14:25;100722.56;;;16.87;64.83
77639;BME280;66802;52.574;14.398;2023-05-15T14:16:51;100727.16;;;16.65;67.00
77639;BME280;66802;52.574;14.398;2023-05-15T14:19:16;100721.78;;;16.57;67.53
77639;BME280;66802;52.574;14.398;2023-05-15T14:21:42;100729.13;;;16.56;67.75
77639;BME280;66802;52.574;14.398;2023-05-15T14:24:07;100725.53;;;16.56;68.45
77639;BME280;66802;52.574;14.398;2023-05-15T14:26:33;100725.75;;;16.54;69.12
77639;BME280;66802;52.574;14.398;2023-05-15T14:28:58;100718.00;;;16.72;69.44
77639;BME280;66802;52.574;14.398;2023-05-15T14:31:24;100707.16;;;16.79;68.53
77639;BME280;66802;52.574;14.398;2023-05-15T14:33:50;100713.59;;;16.71;68.14
77639;BME280;66802;52.574;14.398;2023-05-15T14:36:16;100714.63;;;16.70;69.21
77639;BME280;66802;52.574;14.398;2023-05-15T14:38:41;100708.66;;;16.82;68.67
77639;BME280;66802;52.574;14.398;2023-05-15T14:41:10;100714.94;;;16.82;68.64
77639;BME280;66802;52.574;14.398;2023-05-15T14:43:36;100724.47;;;16.93;68.91
77639;BME280;66802;52.574;14.398;2023-05-15T14:46:02;100718.75;;;16.88;68.70
77639;BME280;66802;52.574;14.398;2023-05-15T14:48:27;100713.63;;;16.78;68.56
77639;BME280;66802;52.574;14.398;2023-05-15T14:50:55;100718.31;;;16.84;68.42
77639;BME280;66802;52.574;14.398;2023-05-15T14:53:20;100730.19;;;16.76;68.02
77639;BME280;66802;52.574;14.398;2023-05-15T14:55:46;100735.34;;;16.65;69.05
77639;BME280;66802;52.574;14.398;2023-05-15T14:58:12;100719.56;;;16.82;69.02
77639;BME280;66802;52.574;14.398;2023-05-15T15:00:38;100720.88;;;16.86;68.09
77639;BME280;66802;52.574;14.398;2023-05-15T15:03:04;100728.06;;;16.93;67.24
77639;BME280;66802;52.574;14.398;2023-05-15T15:05:30;100715.50;;;16.99;68.08
77639;BME280;66802;52.574;14.398;2023-05-15T15:08:08;100717.50;;;17.11;67.13
77639;BME280;66802;52.574;14.398;2023-05-15T15:10:38;100710.81;;;17.14;66.04
77639;BME280;66802;52.574;14.398;2023-05-15T15:13:05;100710.22;;;17.19;64.59
77639;BME280;66802;52.574;14.398;2023-05-15T15:15:33;100712.63;;;17.28;64.69
77639;BME280;66802;52.574;14.398;2023-05-15T15:17:59;100713.50;;;17.35;66.05
77639;BME280;66802;52.574;14.398;2023-05-15T15:20:26;100716.91;;;17.44;64.30
77639;BME280;66802;52.574;14.398;2023-05-15T15:22:53;100724.75;;;17.53;64.92
77639;BME280;66802;52.574;14.398;2023-05-15T15:25:19;100717.38;;;17.54;64.76
77639;BME280;66802;52.574;14.398;2023-05-15T15:27:46;100719.28;;;17.53;64.88
77639;BME280;66802;52.574;14.398;2023-05-15T15:30:12;100718.41;;;17.46;64.30
77639;BME280;66802;52.574;14.398;2023-05-15T15:32:39;100724.03;;;17.38;65.29
77639;BME280;66802;52.574;14.398;2023-05-15T15:35:05;100721.78;;;17.48;64.49
77639;BME280;66802;52.574;14.398;2023-05-15T15:37:33;100725.84;;;17.59;64.93
77639;BME280;66802;52.574;14.398;2023-05-15T15:40:00;100728.72;;;17.79;65.21
77639;BME280;66802;52.574;14.398;2023-05-15T15:42:26;100728.16;;;17.90;64.13
77639;BME280;66802;52.574;14.398;2023-05-15T15:44:53;100718.34;;;18.02;65.31
77639;BME280;66802;52.574;14.398;2023-05-15T15:47:18;100719.56;;;18.00;63.68
77639;BME280;66802;52.574;14.398;2023-05-15T15:49:44;100715.22;;;18.18;63.73
77639;BME280;66802;52.574;14.398;2023-05-15T15:52:09;100712.72;;;18.17;63.45
77639;BME280;66802;52.574;14.398;2023-05-15T15:54:35;100716.63;;;18.01;61.71
77639;BME280;66802;52.574;14.398;2023-05-15T15:57:02;100704.66;;;18.02;61.32
77639;BME280;66802;52.574;14.398;2023-05-15T15:59:27;100713.94;;;18.08;60.87
77639;BME280;66802;52.574;14.398;2023-05-15T16:01:53;100702.19;;;18.14;62.02